createdAt,value
2023-03-29T00:00:03.270Z,995.81
2023-03-29T00:00:13.736Z,995.80
2023-03-29T00:00:24.256Z,995.79
2023-03-29T00:00:34.752Z,995.79
2023-03-29T00:00:45.251Z,995.80
2023-03-29T00:00:55.751Z,995.78
2023-03-29T00:01:06.266Z,995.78
2023-03-29T00:01:34.892Z,995.78
2023-03-29T00:01:35.013Z,995.79
2023-03-29T00:01:38.777Z,995.78
2023-03-29T00:01:48.293Z,995.78
2023-03-29T00:01:58.864Z,995.77
2023-03-29T00:02:09.347Z,995.78
2023-03-29T00:02:19.952Z,995.76
2023-03-29T00:02:30.665Z,995.76
2023-03-29T00:02:40.860Z,995.76
2023-03-29T00:02:51.387Z,995.75
2023-03-29T00:03:01.935Z,995.76
2023-03-29T00:03:12.422Z,995.75
2023-03-29T00:03:22.988Z,995.74
2023-03-29T00:03:33.436Z,995.75
2023-03-29T00:03:43.977Z,995.74
2023-03-29T00:03:54.455Z,995.73
2023-03-29T00:04:05.011Z,995.72
2023-03-29T00:04:15.445Z,995.71
2023-03-29T00:04:25.949Z,995.72
2023-03-29T00:04:36.474Z,995.70
2023-03-29T00:04:46.981Z,995.70
2023-03-29T00:04:57.417Z,995.70
2023-03-29T00:05:07.930Z,995.69
2023-03-29T00:05:18.440Z,995.70
2023-03-29T00:05:28.962Z,995.69
2023-03-29T00:05:39.452Z,995.68
2023-03-29T00:05:49.958Z,995.68
2023-03-29T00:06:00.469Z,995.69
2023-03-29T00:06:10.972Z,995.68
2023-03-29T00:06:21.473Z,995.67
2023-03-29T00:06:31.977Z,995.67
2023-03-29T00:06:42.494Z,995.65
2023-03-29T00:06:53.003Z,995.66
2023-03-29T00:07:03.497Z,995.66
2023-03-29T00:07:14.010Z,995.67
2023-03-29T00:07:24.509Z,995.67
2023-03-29T00:07:35.021Z,995.67
2023-03-29T00:07:45.531Z,995.66
2023-03-29T00:07:56.037Z,995.66
2023-03-29T00:08:06.542Z,995.65
2023-03-29T00:08:17.041Z,995.65
2023-03-29T00:08:27.549Z,995.66
2023-03-29T00:08:38.101Z,995.63
2023-03-29T00:08:48.558Z,995.65
2023-03-29T00:08:59.070Z,995.67
2023-03-29T00:09:09.597Z,995.65
2023-03-29T00:09:20.089Z,995.63
2023-03-29T00:09:30.582Z,995.63
2023-03-29T00:09:41.125Z,995.65
2023-03-29T00:09:51.593Z,995.66
2023-03-29T00:10:02.110Z,995.64
2023-03-29T00:10:12.607Z,995.62
2023-03-29T00:10:23.126Z,995.65
2023-03-29T00:10:33.669Z,995.68
2023-03-29T00:10:44.126Z,995.63
2023-03-29T00:10:54.632Z,995.66
2023-03-29T00:11:05.275Z,995.62
2023-03-29T00:11:15.638Z,995.65
2023-03-29T00:11:26.144Z,995.66
2023-03-29T00:11:36.646Z,995.65
2023-03-29T00:11:47.162Z,995.65
2023-03-29T00:11:57.656Z,995.65
2023-03-29T00:12:08.170Z,995.64
2023-03-29T00:12:18.680Z,995.66
2023-03-29T00:12:29.202Z,995.67
2023-03-29T00:12:39.682Z,995.66
2023-03-29T00:12:50.192Z,995.66
2023-03-29T00:13:00.694Z,995.66
2023-03-29T00:13:11.234Z,995.67
2023-03-29T00:13:21.705Z,995.66
2023-03-29T00:13:32.215Z,995.66
2023-03-29T00:13:42.727Z,995.66
2023-03-29T00:13:53.223Z,995.65
2023-03-29T00:14:03.753Z,995.65
2023-03-29T00:14:14.245Z,995.64
2023-03-29T00:14:24.747Z,995.65
2023-03-29T00:14:35.255Z,995.64
2023-03-29T00:14:45.767Z,995.64
2023-03-29T00:14:56.307Z,995.64
2023-03-29T00:15:06.782Z,995.63
2023-03-29T00:15:17.289Z,995.64
2023-03-29T00:15:27.786Z,995.63
2023-03-29T00:15:38.335Z,995.63
2023-03-29T00:15:48.809Z,995.63
2023-03-29T00:15:59.315Z,995.61
2023-03-29T00:16:09.825Z,995.62
2023-03-29T00:16:20.347Z,995.61
2023-03-29T00:16:30.862Z,995.60
2023-03-29T00:16:41.412Z,995.59
2023-03-29T00:16:51.989Z,995.59
2023-03-29T00:17:02.393Z,995.60
2023-03-29T00:17:12.981Z,995.60
2023-03-29T00:17:23.407Z,995.60
2023-03-29T00:17:33.923Z,995.60
2023-03-29T00:17:44.430Z,995.60
2023-03-29T00:17:54.963Z,995.58
2023-03-29T00:18:05.436Z,995.59
2023-03-29T00:18:15.913Z,995.60
2023-03-29T00:18:26.421Z,995.59
2023-03-29T00:18:36.930Z,995.59
2023-03-29T00:18:47.446Z,995.56
2023-03-29T00:18:57.943Z,995.57
2023-03-29T00:19:08.452Z,995.57
2023-03-29T00:19:18.979Z,995.56
2023-03-29T00:19:29.472Z,995.56
2023-03-29T00:19:39.999Z,995.55
2023-03-29T00:19:50.501Z,995.56
2023-03-29T00:20:00.996Z,995.54
2023-03-29T00:20:11.502Z,995.56
2023-03-29T00:20:22.013Z,995.55
2023-03-29T00:20:32.517Z,995.55
2023-03-29T00:20:43.019Z,995.56
2023-03-29T00:20:53.526Z,995.55
2023-03-29T00:21:04.480Z,995.55
2023-03-29T00:21:14.537Z,995.55
2023-03-29T00:21:25.046Z,995.55
2023-03-29T00:21:35.557Z,995.55
2023-03-29T00:21:46.064Z,995.55
2023-03-29T00:21:56.578Z,995.55
2023-03-29T00:22:07.069Z,995.54
2023-03-29T00:22:17.571Z,995.54
2023-03-29T00:22:28.080Z,995.54
2023-03-29T00:22:38.583Z,995.53
2023-03-29T00:22:49.092Z,995.53
2023-03-29T00:22:59.596Z,995.52
2023-03-29T00:23:10.106Z,995.52
2023-03-29T00:23:20.614Z,995.52
2023-03-29T00:23:31.124Z,995.52
2023-03-29T00:23:41.622Z,995.51
2023-03-29T00:23:52.129Z,995.51
2023-03-29T00:24:02.635Z,995.50
2023-03-29T00:24:13.139Z,995.50
2023-03-29T00:24:23.653Z,995.49
2023-03-29T00:24:34.159Z,995.49
2023-03-29T00:24:44.661Z,995.49
2023-03-29T00:24:55.178Z,995.49
2023-03-29T00:25:05.667Z,995.48
2023-03-29T00:25:16.178Z,995.48
2023-03-29T00:25:26.685Z,995.47
2023-03-29T00:25:37.197Z,995.46
2023-03-29T00:25:47.698Z,995.45
2023-03-29T00:25:58.199Z,995.45
2023-03-29T00:26:08.714Z,995.45
2023-03-29T00:26:19.218Z,995.44
2023-03-29T00:26:29.726Z,995.42
2023-03-29T00:26:40.230Z,995.42
2023-03-29T00:26:50.732Z,995.42
2023-03-29T00:27:01.265Z,995.41
2023-03-29T00:27:11.740Z,995.41
2023-03-29T00:27:22.254Z,995.41
2023-03-29T00:27:32.750Z,995.40
2023-03-29T00:27:43.259Z,995.39
2023-03-29T00:27:53.768Z,995.39
2023-03-29T00:28:04.268Z,995.39
2023-03-29T00:28:14.787Z,995.39
2023-03-29T00:28:25.286Z,995.39
2023-03-29T00:28:35.791Z,995.38
2023-03-29T00:28:46.291Z,995.38
2023-03-29T00:28:56.808Z,995.38
2023-03-29T00:29:07.317Z,995.38
2023-03-29T00:29:17.835Z,995.38
2023-03-29T00:29:28.336Z,995.37
2023-03-29T00:29:38.829Z,995.36
2023-03-29T00:29:49.345Z,995.36
2023-03-29T00:29:59.870Z,995.35
2023-03-29T00:30:10.386Z,995.36
2023-03-29T00:30:20.861Z,995.36
2023-03-29T00:30:31.367Z,995.35
2023-03-29T00:30:41.885Z,995.34
2023-03-29T00:30:52.382Z,995.33
2023-03-29T00:31:03.068Z,995.34
2023-03-29T00:31:13.415Z,995.33
2023-03-29T00:31:23.950Z,995.33
2023-03-29T00:31:34.466Z,995.33
2023-03-29T00:31:44.970Z,995.33
2023-03-29T00:31:55.465Z,995.33
2023-03-29T00:32:05.942Z,995.33
2023-03-29T00:32:16.466Z,995.33
2023-03-29T00:32:26.980Z,995.33
2023-03-29T00:32:37.488Z,995.32
2023-03-29T00:32:48.063Z,995.33
2023-03-29T00:32:58.511Z,995.33
2023-03-29T00:33:09.020Z,995.32
2023-03-29T00:33:19.500Z,995.32
2023-03-29T00:33:30.010Z,995.33
2023-03-29T00:33:40.528Z,995.33
2023-03-29T00:33:51.021Z,995.32
2023-03-29T00:34:01.530Z,995.32
2023-03-29T00:34:12.034Z,995.32
2023-03-29T00:34:22.550Z,995.33
2023-03-29T00:34:33.077Z,995.33
2023-03-29T00:34:43.563Z,995.32
2023-03-29T00:34:54.069Z,995.32
2023-03-29T00:35:04.589Z,995.31
2023-03-29T00:35:15.086Z,995.32
2023-03-29T00:35:25.627Z,995.32
2023-03-29T00:35:36.121Z,995.32
2023-03-29T00:35:46.665Z,995.31
2023-03-29T00:35:57.228Z,995.31
2023-03-29T00:36:07.672Z,995.30
2023-03-29T00:36:18.145Z,995.30
2023-03-29T00:36:28.640Z,995.29
2023-03-29T00:36:39.138Z,995.29
2023-03-29T00:36:49.637Z,995.30
2023-03-29T00:37:00.138Z,995.29
2023-03-29T00:37:10.670Z,995.29
2023-03-29T00:37:21.146Z,995.27
2023-03-29T00:37:31.645Z,995.26
2023-03-29T00:37:42.155Z,995.27
2023-03-29T00:37:52.671Z,995.27
2023-03-29T00:38:03.169Z,995.26
2023-03-29T00:38:13.678Z,995.26
2023-03-29T00:38:24.181Z,995.26
2023-03-29T00:38:34.698Z,995.26
2023-03-29T00:38:45.199Z,995.26
2023-03-29T00:38:55.699Z,995.27
2023-03-29T00:39:06.200Z,995.26
2023-03-29T00:39:16.705Z,995.27
2023-03-29T00:39:27.224Z,995.26
2023-03-29T00:39:37.729Z,995.26
2023-03-29T00:39:48.278Z,995.26
2023-03-29T00:39:58.737Z,995.27
2023-03-29T00:40:09.257Z,995.27
2023-03-29T00:40:19.743Z,995.27
2023-03-29T00:40:30.258Z,995.28
2023-03-29T00:40:40.757Z,995.27
2023-03-29T00:40:51.270Z,995.28
2023-03-29T00:41:02.006Z,995.28
2023-03-29T00:41:12.273Z,995.28
2023-03-29T00:41:22.786Z,995.28
2023-03-29T00:41:33.303Z,995.28
2023-03-29T00:41:43.803Z,995.28
2023-03-29T00:41:54.301Z,995.28
2023-03-29T00:42:04.797Z,995.28
2023-03-29T00:42:15.330Z,995.27
2023-03-29T00:42:25.817Z,995.28
2023-03-29T00:42:36.314Z,995.27
2023-03-29T00:42:46.834Z,995.26
2023-03-29T00:42:57.332Z,995.26
2023-03-29T00:43:07.865Z,995.26
2023-03-29T00:43:18.351Z,995.25
2023-03-29T00:43:28.848Z,995.25
2023-03-29T00:43:39.360Z,995.25
2023-03-29T00:43:49.855Z,995.25
2023-03-29T00:44:00.369Z,995.25
2023-03-29T00:44:10.865Z,995.24
2023-03-29T00:44:21.369Z,995.25
2023-03-29T00:44:31.870Z,995.23
2023-03-29T00:44:42.462Z,995.23
2023-03-29T00:44:52.881Z,995.23
2023-03-29T00:45:03.422Z,995.22
2023-03-29T00:45:13.905Z,995.23
2023-03-29T00:45:24.401Z,995.23
2023-03-29T00:45:34.900Z,995.22
2023-03-29T00:45:45.410Z,995.23
2023-03-29T00:45:55.998Z,995.22
2023-03-29T00:46:06.436Z,995.23
2023-03-29T00:46:16.935Z,995.22
2023-03-29T00:46:27.487Z,995.21
2023-03-29T00:46:37.968Z,995.21
2023-03-29T00:46:48.506Z,995.21
2023-03-29T00:46:58.947Z,995.21
2023-03-29T00:47:09.456Z,995.21
2023-03-29T00:47:19.962Z,995.21
2023-03-29T00:47:30.480Z,995.20
2023-03-29T00:47:41.016Z,995.19
2023-03-29T00:47:51.557Z,995.20
2023-03-29T00:48:02.006Z,995.20
2023-03-29T00:48:12.560Z,995.18
2023-03-29T00:48:22.985Z,995.17
2023-03-29T00:48:33.485Z,995.18
2023-03-29T00:48:43.989Z,995.17
2023-03-29T00:48:54.497Z,995.18
2023-03-29T00:49:05.024Z,995.18
2023-03-29T00:49:15.525Z,995.17
2023-03-29T00:49:26.012Z,995.17
2023-03-29T00:49:36.515Z,995.18
2023-03-29T00:49:47.037Z,995.18
2023-03-29T00:49:57.531Z,995.18
2023-03-29T00:50:08.028Z,995.18
2023-03-29T00:50:18.542Z,995.18
2023-03-29T00:50:29.041Z,995.18
2023-03-29T00:50:39.550Z,995.18
2023-03-29T00:50:50.065Z,995.18
2023-03-29T00:51:00.758Z,995.18
2023-03-29T00:51:11.060Z,995.17
2023-03-29T00:51:21.576Z,995.17
2023-03-29T00:51:32.082Z,995.18
2023-03-29T00:51:42.593Z,995.18
2023-03-29T00:51:53.083Z,995.19
2023-03-29T00:52:03.629Z,995.17
2023-03-29T00:52:14.109Z,995.17
2023-03-29T00:52:24.602Z,995.17
2023-03-29T00:52:35.140Z,995.18
2023-03-29T00:52:45.614Z,995.18
2023-03-29T00:52:56.120Z,995.17
2023-03-29T00:53:06.630Z,995.18
2023-03-29T00:53:17.153Z,995.18
2023-03-29T00:53:27.640Z,995.17
2023-03-29T00:53:38.144Z,995.18
2023-03-29T00:53:48.697Z,995.18
2023-03-29T00:53:59.156Z,995.18
2023-03-29T00:54:09.663Z,995.18
2023-03-29T00:54:20.162Z,995.18
2023-03-29T00:54:30.678Z,995.18
2023-03-29T00:54:41.190Z,995.18
2023-03-29T00:54:51.683Z,995.19
2023-03-29T00:55:02.191Z,995.18
2023-03-29T00:55:12.694Z,995.19
2023-03-29T00:55:23.213Z,995.17
2023-03-29T00:55:33.717Z,995.19
2023-03-29T00:55:44.252Z,995.20
2023-03-29T00:55:54.730Z,995.18
2023-03-29T00:56:05.277Z,995.17
2023-03-29T00:56:15.747Z,995.18
2023-03-29T00:56:26.269Z,995.19
2023-03-29T00:56:36.922Z,995.19
2023-03-29T00:56:47.319Z,995.19
2023-03-29T00:56:57.793Z,995.20
2023-03-29T00:57:08.335Z,995.19
2023-03-29T00:57:18.822Z,995.20
2023-03-29T00:57:29.323Z,995.19
2023-03-29T00:57:39.831Z,995.20
2023-03-29T00:57:50.301Z,995.20
2023-03-29T00:58:00.843Z,995.19
2023-03-29T00:58:11.340Z,995.19
2023-03-29T00:58:21.821Z,995.19
2023-03-29T00:58:32.331Z,995.18
2023-03-29T00:58:42.833Z,995.19
2023-03-29T00:58:53.344Z,995.18
2023-03-29T00:59:03.868Z,995.19
2023-03-29T00:59:14.361Z,995.19
2023-03-29T00:59:24.867Z,995.19
2023-03-29T00:59:35.373Z,995.20
2023-03-29T00:59:45.877Z,995.19
2023-03-29T00:59:56.385Z,995.19
2023-03-29T01:00:06.925Z,995.18
2023-03-29T01:00:17.419Z,995.19
2023-03-29T01:00:27.921Z,995.18
2023-03-29T01:00:38.404Z,995.18
2023-03-29T01:00:48.918Z,995.18
2023-03-29T01:00:59.606Z,995.17
2023-03-29T01:01:09.926Z,995.17
2023-03-29T01:01:20.521Z,995.17
2023-03-29T01:01:30.984Z,995.16
2023-03-29T01:01:41.480Z,995.16
2023-03-29T01:01:51.996Z,995.15
2023-03-29T01:02:02.581Z,995.14
2023-03-29T01:02:12.980Z,995.12
2023-03-29T01:02:23.488Z,995.13
2023-03-29T01:02:34.179Z,995.13
2023-03-29T01:02:44.563Z,995.14
2023-03-29T01:02:55.152Z,995.12
2023-03-29T01:03:05.613Z,995.14
2023-03-29T01:03:16.088Z,995.11
2023-03-29T01:03:26.624Z,995.09
2023-03-29T01:03:37.113Z,995.11
2023-03-29T01:03:47.632Z,995.11
2023-03-29T01:03:58.066Z,995.12
2023-03-29T01:04:08.639Z,995.11
2023-03-29T01:04:19.089Z,995.11
2023-03-29T01:04:29.687Z,995.11
2023-03-29T01:04:40.069Z,995.10
2023-03-29T01:04:50.571Z,995.10
2023-03-29T01:05:01.068Z,995.10
2023-03-29T01:05:11.580Z,995.09
2023-03-29T01:05:22.083Z,995.09
2023-03-29T01:05:32.588Z,995.08
2023-03-29T01:05:43.092Z,995.08
2023-03-29T01:05:53.592Z,995.08
2023-03-29T01:06:04.112Z,995.08
2023-03-29T01:06:14.611Z,995.08
2023-03-29T01:06:25.159Z,995.09
2023-03-29T01:06:35.722Z,995.09
2023-03-29T01:06:46.171Z,995.08
2023-03-29T01:06:56.672Z,995.08
2023-03-29T01:07:07.279Z,995.09
2023-03-29T01:07:17.678Z,995.09
2023-03-29T01:07:28.145Z,995.10
2023-03-29T01:07:38.643Z,995.09
2023-03-29T01:07:49.150Z,995.09
2023-03-29T01:07:59.652Z,995.08
2023-03-29T01:08:10.174Z,995.08
2023-03-29T01:08:20.669Z,995.08
2023-03-29T01:08:31.176Z,995.08
2023-03-29T01:08:41.707Z,995.08
2023-03-29T01:08:52.196Z,995.08
2023-03-29T01:09:02.693Z,995.08
2023-03-29T01:09:13.197Z,995.08
2023-03-29T01:09:23.736Z,995.08
2023-03-29T01:09:34.235Z,995.07
2023-03-29T01:09:44.715Z,995.08
2023-03-29T01:09:55.224Z,995.08
2023-03-29T01:10:05.730Z,995.09
2023-03-29T01:10:16.248Z,995.07
2023-03-29T01:10:26.736Z,995.08
2023-03-29T01:10:37.257Z,995.07
2023-03-29T01:10:47.749Z,995.06
2023-03-29T01:10:58.270Z,995.06
2023-03-29T01:11:08.781Z,995.06
2023-03-29T01:11:19.274Z,995.06
2023-03-29T01:11:29.782Z,995.05
2023-03-29T01:11:40.317Z,995.05
2023-03-29T01:11:50.800Z,995.05
2023-03-29T01:12:01.301Z,995.06
2023-03-29T01:12:11.806Z,995.06
2023-03-29T01:12:22.313Z,995.05
2023-03-29T01:12:32.837Z,995.06
2023-03-29T01:12:43.320Z,995.05
2023-03-29T01:12:53.825Z,995.04
2023-03-29T01:13:04.334Z,995.04
2023-03-29T01:13:14.862Z,995.04
2023-03-29T01:13:25.343Z,995.03
2023-03-29T01:13:35.845Z,995.04
2023-03-29T01:13:46.365Z,995.03
2023-03-29T01:13:56.857Z,995.03
2023-03-29T01:14:07.380Z,995.04
2023-03-29T01:14:17.897Z,995.04
2023-03-29T01:14:28.371Z,995.04
2023-03-29T01:14:38.880Z,995.02
2023-03-29T01:14:49.383Z,995.02
2023-03-29T01:14:59.889Z,995.02
2023-03-29T01:15:10.418Z,995.01
2023-03-29T01:15:20.902Z,995.01
2023-03-29T01:15:31.410Z,995.01
2023-03-29T01:15:41.934Z,995.00
2023-03-29T01:15:52.418Z,995.00
2023-03-29T01:16:02.985Z,995.00
2023-03-29T01:16:13.483Z,994.99
2023-03-29T01:16:23.952Z,994.99
2023-03-29T01:16:34.456Z,994.98
2023-03-29T01:16:45.011Z,994.98
2023-03-29T01:16:55.493Z,994.98
2023-03-29T01:17:05.948Z,994.97
2023-03-29T01:17:16.457Z,994.98
2023-03-29T01:17:26.982Z,994.97
2023-03-29T01:17:37.540Z,994.96
2023-03-29T01:17:48.027Z,994.95
2023-03-29T01:17:58.698Z,994.94
2023-03-29T01:18:09.040Z,994.95
2023-03-29T01:18:19.490Z,994.94
2023-03-29T01:18:29.991Z,994.93
2023-03-29T01:18:40.503Z,994.93
2023-03-29T01:18:50.991Z,994.93
2023-03-29T01:19:01.497Z,994.93
2023-03-29T01:19:12.002Z,994.92
2023-03-29T01:19:22.505Z,994.91
2023-03-29T01:19:33.016Z,994.91
2023-03-29T01:19:43.525Z,994.89
2023-03-29T01:19:54.019Z,994.91
2023-03-29T01:20:04.554Z,994.90
2023-03-29T01:20:15.034Z,994.90
2023-03-29T01:20:25.544Z,994.89
2023-03-29T01:20:36.042Z,994.90
2023-03-29T01:20:46.584Z,994.89
2023-03-29T01:20:57.067Z,994.89
2023-03-29T01:21:07.563Z,994.90
2023-03-29T01:21:18.058Z,994.89
2023-03-29T01:21:28.570Z,994.89
2023-03-29T01:21:39.069Z,994.89
2023-03-29T01:21:49.576Z,994.89
2023-03-29T01:22:00.109Z,994.89
2023-03-29T01:22:10.595Z,994.89
2023-03-29T01:22:21.087Z,994.89
2023-03-29T01:22:31.610Z,994.88
2023-03-29T01:22:42.109Z,994.89
2023-03-29T01:22:52.611Z,994.89
2023-03-29T01:23:03.114Z,994.89
2023-03-29T01:23:13.633Z,994.88
2023-03-29T01:23:24.123Z,994.89
2023-03-29T01:23:34.629Z,994.89
2023-03-29T01:23:45.144Z,994.89
2023-03-29T01:23:55.648Z,994.90
2023-03-29T01:24:06.146Z,994.89
2023-03-29T01:24:16.652Z,994.89
2023-03-29T01:24:27.175Z,994.88
2023-03-29T01:24:37.669Z,994.88
2023-03-29T01:24:48.184Z,994.87
2023-03-29T01:24:58.672Z,994.88
2023-03-29T01:25:09.173Z,994.88
2023-03-29T01:25:19.718Z,994.87
2023-03-29T01:25:30.185Z,994.87
2023-03-29T01:25:40.690Z,994.86
2023-03-29T01:25:51.237Z,994.86
2023-03-29T01:26:01.713Z,994.85
2023-03-29T01:26:12.197Z,994.85
2023-03-29T01:26:22.711Z,994.84
2023-03-29T01:26:33.220Z,994.84
2023-03-29T01:26:43.710Z,994.84
2023-03-29T01:26:54.213Z,994.83
2023-03-29T01:27:04.721Z,994.82
2023-03-29T01:27:15.219Z,994.83
2023-03-29T01:27:25.735Z,994.82
2023-03-29T01:27:36.253Z,994.82
2023-03-29T01:27:46.745Z,994.80
2023-03-29T01:27:57.261Z,994.80
2023-03-29T01:28:07.751Z,994.79
2023-03-29T01:28:18.245Z,994.80
2023-03-29T01:28:28.757Z,994.80
2023-03-29T01:28:39.262Z,994.79
2023-03-29T01:28:49.765Z,994.79
2023-03-29T01:29:00.271Z,994.78
2023-03-29T01:29:10.775Z,994.79
2023-03-29T01:29:21.282Z,994.78
2023-03-29T01:29:31.783Z,994.78
2023-03-29T01:29:42.290Z,994.78
2023-03-29T01:29:52.815Z,994.79
2023-03-29T01:30:03.304Z,994.78
2023-03-29T01:30:13.879Z,994.79
2023-03-29T01:30:24.304Z,994.78
2023-03-29T01:30:34.803Z,994.77
2023-03-29T01:30:45.318Z,994.78
2023-03-29T01:30:55.816Z,994.78
2023-03-29T01:31:06.323Z,994.78
2023-03-29T01:31:16.859Z,994.78
2023-03-29T01:31:27.370Z,994.79
2023-03-29T01:31:37.899Z,994.79
2023-03-29T01:31:48.386Z,994.79
2023-03-29T01:31:58.843Z,994.78
2023-03-29T01:32:09.441Z,994.78
2023-03-29T01:32:19.847Z,994.78
2023-03-29T01:32:30.405Z,994.78
2023-03-29T01:32:40.919Z,994.78
2023-03-29T01:32:51.377Z,994.78
2023-03-29T01:33:01.924Z,994.77
2023-03-29T01:33:12.375Z,994.77
2023-03-29T01:33:22.884Z,994.77
2023-03-29T01:33:33.381Z,994.76
2023-03-29T01:33:43.894Z,994.75
2023-03-29T01:33:54.392Z,994.75
2023-03-29T01:34:04.904Z,994.75
2023-03-29T01:34:15.410Z,994.75
2023-03-29T01:34:25.927Z,994.74
2023-03-29T01:34:36.436Z,994.74
2023-03-29T01:34:46.938Z,994.74
2023-03-29T01:34:57.435Z,994.75
2023-03-29T01:35:07.942Z,994.74
2023-03-29T01:35:18.483Z,994.73
2023-03-29T01:35:28.954Z,994.73
2023-03-29T01:35:39.483Z,994.73
2023-03-29T01:35:49.979Z,994.73
2023-03-29T01:36:00.501Z,994.72
2023-03-29T01:36:11.016Z,994.72
2023-03-29T01:36:21.491Z,994.72
2023-03-29T01:36:32.002Z,994.72
2023-03-29T01:36:42.511Z,994.72
2023-03-29T01:36:52.990Z,994.71
2023-03-29T01:37:03.581Z,994.70
2023-03-29T01:37:14.037Z,994.70
2023-03-29T01:37:24.526Z,994.69
2023-03-29T01:37:35.018Z,994.69
2023-03-29T01:37:45.521Z,994.70
2023-03-29T01:37:56.031Z,994.69
2023-03-29T01:38:06.542Z,994.69
2023-03-29T01:38:17.047Z,994.68
2023-03-29T01:38:27.552Z,994.68
2023-03-29T01:38:38.056Z,994.67
2023-03-29T01:38:48.564Z,994.68
2023-03-29T01:38:59.074Z,994.69
2023-03-29T01:39:09.584Z,994.67
2023-03-29T01:39:20.084Z,994.68
2023-03-29T01:39:30.589Z,994.68
2023-03-29T01:39:41.096Z,994.67
2023-03-29T01:39:51.596Z,994.67
2023-03-29T01:40:02.110Z,994.67
2023-03-29T01:40:12.618Z,994.68
2023-03-29T01:40:23.122Z,994.67
2023-03-29T01:40:33.631Z,994.67
2023-03-29T01:40:44.131Z,994.67
2023-03-29T01:40:54.634Z,994.66
2023-03-29T01:41:05.180Z,994.67
2023-03-29T01:41:15.657Z,994.67
2023-03-29T01:41:26.147Z,994.66
2023-03-29T01:41:36.653Z,994.65
2023-03-29T01:41:47.157Z,994.66
2023-03-29T01:41:57.673Z,994.67
2023-03-29T01:42:08.180Z,994.64
2023-03-29T01:42:18.702Z,994.64
2023-03-29T01:42:29.180Z,994.65
2023-03-29T01:42:39.683Z,994.64
2023-03-29T01:42:50.193Z,994.63
2023-03-29T01:43:00.699Z,994.63
2023-03-29T01:43:11.210Z,994.63
2023-03-29T01:43:21.715Z,994.62
2023-03-29T01:43:32.222Z,994.62
2023-03-29T01:43:42.724Z,994.62
2023-03-29T01:43:53.234Z,994.62
2023-03-29T01:44:03.727Z,994.62
2023-03-29T01:44:14.240Z,994.61
2023-03-29T01:44:24.751Z,994.62
2023-03-29T01:44:35.260Z,994.61
2023-03-29T01:44:45.782Z,994.61
2023-03-29T01:44:56.269Z,994.61
2023-03-29T01:45:06.777Z,994.61
2023-03-29T01:45:17.305Z,994.60
2023-03-29T01:45:27.785Z,994.60
2023-03-29T01:45:38.285Z,994.60
2023-03-29T01:45:48.855Z,994.60
2023-03-29T01:45:59.325Z,994.60
2023-03-29T01:46:09.816Z,994.59
2023-03-29T01:46:20.358Z,994.59
2023-03-29T01:46:30.843Z,994.59
2023-03-29T01:46:41.316Z,994.59
2023-03-29T01:46:51.840Z,994.58
2023-03-29T01:47:02.329Z,994.58
2023-03-29T01:47:12.829Z,994.58
2023-03-29T01:47:23.356Z,994.59
2023-03-29T01:47:33.892Z,994.58
2023-03-29T01:47:44.365Z,994.59
2023-03-29T01:47:54.857Z,994.58
2023-03-29T01:48:05.391Z,994.58
2023-03-29T01:48:15.846Z,994.58
2023-03-29T01:48:26.358Z,994.58
2023-03-29T01:48:36.869Z,994.57
2023-03-29T01:48:47.366Z,994.57
2023-03-29T01:48:57.871Z,994.57
2023-03-29T01:49:08.377Z,994.57
2023-03-29T01:49:18.877Z,994.58
2023-03-29T01:49:29.393Z,994.58
2023-03-29T01:49:39.891Z,994.57
2023-03-29T01:49:50.404Z,994.57
2023-03-29T01:50:00.922Z,994.58
2023-03-29T01:50:11.411Z,994.58
2023-03-29T01:50:21.912Z,994.58
2023-03-29T01:50:32.416Z,994.57
2023-03-29T01:50:42.924Z,994.58
2023-03-29T01:50:53.446Z,994.57
2023-03-29T01:51:04.281Z,994.57
2023-03-29T01:51:14.432Z,994.58
2023-03-29T01:51:24.934Z,994.57
2023-03-29T01:51:35.445Z,994.58
2023-03-29T01:51:45.963Z,994.57
2023-03-29T01:51:56.454Z,994.58
2023-03-29T01:52:06.962Z,994.58
2023-03-29T01:52:17.495Z,994.58
2023-03-29T01:52:27.970Z,994.59
2023-03-29T01:52:38.485Z,994.58
2023-03-29T01:52:48.990Z,994.58
2023-03-29T01:52:59.496Z,994.58
2023-03-29T01:53:10.004Z,994.57
2023-03-29T01:53:20.529Z,994.57
2023-03-29T01:53:31.013Z,994.58
2023-03-29T01:53:41.523Z,994.58
2023-03-29T01:53:52.032Z,994.58
2023-03-29T01:54:02.548Z,994.58
2023-03-29T01:54:13.047Z,994.58
2023-03-29T01:54:23.548Z,994.58
2023-03-29T01:54:34.052Z,994.57
2023-03-29T01:54:44.570Z,994.57
2023-03-29T01:54:55.065Z,994.57
2023-03-29T01:55:05.567Z,994.58
2023-03-29T01:55:16.085Z,994.57
2023-03-29T01:55:26.581Z,994.57
2023-03-29T01:55:37.086Z,994.57
2023-03-29T01:55:47.596Z,994.57
2023-03-29T01:55:58.098Z,994.56
2023-03-29T01:56:08.616Z,994.57
2023-03-29T01:56:19.117Z,994.56
2023-03-29T01:56:29.627Z,994.56
2023-03-29T01:56:40.157Z,994.56
2023-03-29T01:56:50.652Z,994.55
2023-03-29T01:57:01.157Z,994.55
2023-03-29T01:57:11.753Z,994.56
2023-03-29T01:57:22.259Z,994.55
2023-03-29T01:57:32.648Z,994.55
2023-03-29T01:57:43.159Z,994.54
2023-03-29T01:57:53.656Z,994.53
2023-03-29T01:58:04.160Z,994.53
2023-03-29T01:58:14.675Z,994.54
2023-03-29T01:58:25.181Z,994.54
2023-03-29T01:58:35.693Z,994.53
2023-03-29T01:58:46.190Z,994.54
2023-03-29T01:58:56.693Z,994.53
2023-03-29T01:59:07.244Z,994.53
2023-03-29T01:59:17.709Z,994.53
2023-03-29T01:59:28.246Z,994.52
2023-03-29T01:59:38.722Z,994.52
2023-03-29T01:59:49.227Z,994.51
2023-03-29T01:59:59.722Z,994.51
2023-03-29T02:00:10.242Z,994.51
2023-03-29T02:00:20.762Z,994.50
2023-03-29T02:00:31.248Z,994.51
2023-03-29T02:00:41.753Z,994.50
2023-03-29T02:00:52.256Z,994.49
2023-03-29T02:01:03.023Z,994.49
2023-03-29T02:01:13.281Z,994.49
2023-03-29T02:01:23.837Z,994.48
2023-03-29T02:01:34.302Z,994.48
2023-03-29T02:01:44.807Z,994.48
2023-03-29T02:01:55.361Z,994.47
2023-03-29T02:02:05.830Z,994.46
2023-03-29T02:02:16.318Z,994.46
2023-03-29T02:02:26.905Z,994.46
2023-03-29T02:02:37.441Z,994.45
2023-03-29T02:02:47.930Z,994.45
2023-03-29T02:02:58.419Z,994.45
2023-03-29T02:03:08.973Z,994.44
2023-03-29T02:03:19.418Z,994.44
2023-03-29T02:03:29.956Z,994.44
2023-03-29T02:03:40.394Z,994.44
2023-03-29T02:03:50.856Z,994.43
2023-03-29T02:04:01.346Z,994.43
2023-03-29T02:04:11.897Z,994.42
2023-03-29T02:04:22.349Z,994.42
2023-03-29T02:04:32.865Z,994.42
2023-03-29T02:04:43.366Z,994.41
2023-03-29T02:04:53.897Z,994.41
2023-03-29T02:05:04.396Z,994.40
2023-03-29T02:05:14.901Z,994.40
2023-03-29T02:05:25.395Z,994.39
2023-03-29T02:05:35.903Z,994.38
2023-03-29T02:05:46.402Z,994.38
2023-03-29T02:05:56.912Z,994.38
2023-03-29T02:06:07.416Z,994.36
2023-03-29T02:06:17.941Z,994.36
2023-03-29T02:06:28.453Z,994.35
2023-03-29T02:06:38.938Z,994.34
2023-03-29T02:06:49.446Z,994.34
2023-03-29T02:06:59.951Z,994.33
2023-03-29T02:07:10.456Z,994.33
2023-03-29T02:07:20.958Z,994.33
2023-03-29T02:07:31.460Z,994.33
2023-03-29T02:07:41.981Z,994.32
2023-03-29T02:07:52.481Z,994.32
2023-03-29T02:08:02.980Z,994.29
2023-03-29T02:08:13.485Z,994.29
2023-03-29T02:08:23.993Z,994.27
2023-03-29T02:08:34.500Z,994.27
2023-03-29T02:08:45.042Z,994.26
2023-03-29T02:08:55.515Z,994.25
2023-03-29T02:09:06.023Z,994.25
2023-03-29T02:09:16.560Z,994.25
2023-03-29T02:09:27.052Z,994.25
2023-03-29T02:09:37.538Z,994.24
2023-03-29T02:09:48.043Z,994.24
2023-03-29T02:09:58.547Z,994.23
2023-03-29T02:10:09.071Z,994.23
2023-03-29T02:10:19.561Z,994.23
2023-03-29T02:10:30.069Z,994.22
2023-03-29T02:10:40.575Z,994.22
2023-03-29T02:10:51.084Z,994.23
2023-03-29T02:11:01.885Z,994.22